Charles B. Wheeler Downtown Airport
KMKC : now visible

Airfield :











YOU CAN JOIN US ON...

 
LOGIN :

Register | Disclaimer

   EN    FR    IT 

 









Legend :    VFR   Marginal VFR   IFR   Intensive IFR   Very Intensive IFR
Visi :
Ceiling :
>= 8 km
>= 3000ft
5 to 8 km
1000 to 3000 ft
1500m to 5 km
500 to 1000 ft
800 to 1500m
200 to 500 ft
< 800m
< 200 ft
Symbols :   Thunderstorms  Fog  Heavy snow  Heavy precipitations  Wind > 20 kt






- Airport Elevation : 759 ft
- IATA code : MKC


KMKC - Charles B. Wheeler Downtown

CURRENT METAR :
  • 211554Z 18014G23KT 10SM SCT039 BKN047 OVC055 27/20 A2957 RMK AO2 SLP002 T02720200

EXPIRED METARs :
  • 211454Z 19010G23KT 10SM BKN036 OVC050 26/19 A2958 RMK AO2 PK WND 17029/1433 SLP008 T02560194 55011
  • 211354Z 19012G21KT 10SM SCT030 26/19 A2958 RMK AO2 SLP007 T02560189
  • 211254Z 18013G21KT 10SM CLR 24/19 A2957 RMK AO2 SLP006 T02440189
  • 211154Z 17017G26KT 10SM CLR 23/18 A2961 RMK AO2 PK WND 17026/1154 SLP019 T02330183 10250 20233 56018

TAF KMKC
Valid from the 21 at 12:00 until the 22 at 12:00 UTC


211120Z 2112/2212 15008KT P6SM BKN200
FM211500 19018G29KT P6SM SCT060
FM212000 21021G34KT P6SM VCTS SCT110CB
FM220000 29015G24KT P6SM SKC
FM220600 33007KT P6SM SKC
KZKC FIR / North America



MET'MAP, your aeronautical weather chart ! - Copyright ORBIFLY December 2007 - Disclaimer

ORBIFLY MET'MAP TEAM :

Programming & Development : Alexandra Zaïnal
Original concept : Baudouin d'Aumeries
Technical & hardware support : Manuel Goepfert
Assistance : Marc-Olivier Méhu




SOURCES & CREDITS :

   NOAA       Earth
Advisory